createdAt,value
2023-11-01T00:02:22.382Z,100275.50
2023-11-01T00:04:49.551Z,100271.00
2023-11-01T00:07:16.696Z,100273.19
2023-11-01T00:09:43.980Z,100271.66
2023-11-01T00:12:11.182Z,100269.47
2023-11-01T00:14:38.430Z,100281.28
2023-11-01T00:17:05.624Z,100270.59
2023-11-01T00:19:32.882Z,100270.91
2023-11-01T00:21:59.850Z,100284.84
2023-11-01T00:24:26.952Z,100282.16
2023-11-01T00:26:54.066Z,100275.78
2023-11-01T00:29:21.345Z,100280.09
2023-11-01T00:31:48.517Z,100285.84
2023-11-01T00:34:15.767Z,100293.84
2023-11-01T00:36:43.136Z,100284.72
2023-11-01T00:39:10.358Z,100294.28
2023-11-01T00:41:37.318Z,100300.69
2023-11-01T00:44:07.243Z,100290.25
2023-11-01T00:46:34.449Z,100292.84
2023-11-01T00:49:02.078Z,100302.41
2023-11-01T00:51:29.127Z,100302.34
2023-11-01T00:53:56.185Z,100310.38
2023-11-01T00:56:23.118Z,100310.75
2023-11-01T00:58:50.149Z,100315.78
2023-11-01T01:01:17.417Z,100331.81
2023-11-01T01:03:44.728Z,100322.41
2023-11-01T01:06:11.919Z,100318.44
2023-11-01T01:08:39.169Z,100311.00
2023-11-01T01:11:06.329Z,100310.50
2023-11-01T01:13:33.368Z,100314.34
2023-11-01T01:16:00.453Z,100300.72
2023-11-01T01:18:27.773Z,100300.00
2023-11-01T01:20:54.985Z,100298.94
2023-11-01T01:23:22.265Z,100302.97
2023-11-01T01:25:49.273Z,100303.53
2023-11-01T01:28:16.240Z,100309.69
2023-11-01T01:30:43.286Z,100316.66
2023-11-01T01:33:10.707Z,100310.50
2023-11-01T01:35:37.936Z,100308.66
2023-11-01T01:38:05.138Z,100300.63
2023-11-01T01:40:35.238Z,100314.72
2023-11-01T01:43:19.517Z,100313.44
2023-11-01T01:45:47.220Z,100305.09
2023-11-01T01:48:14.777Z,100306.47
2023-11-01T01:50:42.038Z,100302.97
2023-11-01T01:53:09.453Z,100303.06
2023-11-01T01:55:37.155Z,100299.00
2023-11-01T01:58:05.028Z,100291.78
2023-11-01T02:00:33.463Z,100296.41
2023-11-01T02:03:01.619Z,100300.13
2023-11-01T02:05:29.329Z,100299.88
2023-11-01T02:07:56.624Z,100299.88
2023-11-01T02:10:24.275Z,100302.81
2023-11-01T02:12:53.255Z,100304.75
2023-11-01T02:15:23.747Z,100306.03
2023-11-01T02:17:50.890Z,100300.69
2023-11-01T02:20:18.538Z,100307.41
2023-11-01T02:22:45.587Z,100307.16
2023-11-01T02:25:13.946Z,100309.28
2023-11-01T02:27:41.618Z,100323.78
2023-11-01T02:30:15.597Z,100307.72
2023-11-01T02:32:42.625Z,100298.09
2023-11-01T02:35:09.856Z,100302.38
2023-11-01T02:37:36.866Z,100296.53
2023-11-01T02:40:04.439Z,100303.81
2023-11-01T02:42:32.187Z,100295.53
2023-11-01T02:44:59.425Z,100299.06
2023-11-01T02:47:26.797Z,100291.69
2023-11-01T02:49:54.611Z,100295.22
2023-11-01T02:52:21.962Z,100292.56
2023-11-01T02:54:48.994Z,100294.41
2023-11-01T02:57:16.078Z,100287.44
2023-11-01T02:59:43.191Z,100284.78
2023-11-01T03:02:10.380Z,100297.09
2023-11-01T03:04:37.498Z,100290.13
2023-11-01T03:07:04.482Z,100286.06
2023-11-01T03:09:31.514Z,100293.28
2023-11-01T03:11:58.614Z,100297.59
2023-11-01T03:14:25.599Z,100290.88
2023-11-01T03:16:52.735Z,100291.94
2023-11-01T03:19:19.703Z,100288.44
2023-11-01T03:21:46.827Z,100291.13
2023-11-01T03:24:14.038Z,100285.13
2023-11-01T03:26:41.492Z,100301.81
2023-11-01T03:29:08.700Z,100296.41
2023-11-01T03:31:35.725Z,100296.41
2023-11-01T03:34:02.875Z,100292.41
2023-11-01T03:36:29.840Z,100288.63
2023-11-01T03:38:56.942Z,100297.03
2023-11-01T03:41:24.159Z,100288.19
2023-11-01T03:43:51.214Z,100299.78
2023-11-01T03:46:18.380Z,100297.09
2023-11-01T03:48:45.389Z,100297.91
2023-11-01T03:51:12.501Z,100307.56
2023-11-01T03:53:39.646Z,100301.88
2023-11-01T03:56:07.452Z,100307.56
2023-11-01T03:58:34.919Z,100301.88
2023-11-01T04:01:02.048Z,100311.84
2023-11-01T04:03:29.226Z,100301.38
2023-11-01T04:05:56.441Z,100315.31
2023-11-01T04:08:24.160Z,100304.31
2023-11-01T04:10:51.360Z,100311.84
2023-11-01T04:13:18.469Z,100311.59
2023-11-01T04:15:45.611Z,100315.91
2023-11-01T04:18:12.727Z,100320.69
2023-11-01T04:20:39.767Z,100311.28
2023-11-01T04:23:07.090Z,100307.31
2023-11-01T04:25:34.368Z,100305.78
2023-11-01T04:28:01.568Z,100292.88
2023-11-01T04:30:28.528Z,100300.19
2023-11-01T04:32:55.656Z,100284.69
2023-11-01T04:35:22.709Z,100297.31
2023-11-01T04:37:49.678Z,100294.66
2023-11-01T04:40:16.918Z,100291.16
2023-11-01T04:42:46.014Z,100291.47
2023-11-01T04:45:13.825Z,100282.06
2023-11-01T04:47:43.893Z,100285.81
2023-11-01T04:50:12.620Z,100281.28
2023-11-01T04:52:40.914Z,100275.34
2023-11-01T04:55:09.779Z,100275.34
2023-11-01T04:57:37.246Z,100280.16
2023-11-01T05:00:12.834Z,100283.31
2023-11-01T05:02:40.307Z,100279.03
2023-11-01T05:05:09.557Z,100283.81
2023-11-01T05:07:37.372Z,100280.91
2023-11-01T05:10:12.255Z,100282.25
2023-11-01T05:12:39.423Z,100280.00
2023-11-01T05:15:07.044Z,100279.03
2023-11-01T05:17:34.373Z,100272.63
2023-11-01T05:20:01.520Z,100276.09
2023-11-01T05:22:28.537Z,100271.00
2023-11-01T05:24:55.527Z,100275.28
2023-11-01T05:27:22.622Z,100274.22
2023-11-01T05:29:49.706Z,100278.53
2023-11-01T05:32:16.966Z,100275.84
2023-11-01T05:34:46.413Z,100274.78
2023-11-01T05:37:13.589Z,100275.03
2023-11-01T05:39:41.943Z,100260.34
2023-11-01T05:42:09.886Z,100278.34
2023-11-01T05:44:38.354Z,100289.06
2023-11-01T05:47:05.818Z,100284.75
2023-11-01T05:49:35.866Z,100297.63
2023-11-01T05:52:04.109Z,100299.50
2023-11-01T05:54:31.211Z,100294.97
2023-11-01T05:56:58.454Z,100296.34
2023-11-01T05:59:25.518Z,100298.75
2023-11-01T06:01:53.982Z,100296.41
2023-11-01T06:04:22.299Z,100283.25
2023-11-01T06:06:49.710Z,100300.44
2023-11-01T06:09:20.634Z,100290.47
2023-11-01T06:11:47.787Z,100298.25
2023-11-01T06:14:15.034Z,100298.00
2023-11-01T06:16:42.221Z,100305.22
2023-11-01T06:19:09.222Z,100302.88
2023-11-01T06:21:37.715Z,100293.72
2023-11-01T06:24:05.216Z,100295.97
2023-11-01T06:26:32.647Z,100297.06
2023-11-01T06:28:59.699Z,100288.22
2023-11-01T06:31:26.724Z,100296.50
2023-11-01T06:33:53.872Z,100294.66
2023-11-01T06:36:21.313Z,100305.03
2023-11-01T06:38:48.529Z,100296.75
2023-11-01T06:41:15.721Z,100312.56
2023-11-01T06:43:43.265Z,100312.25
2023-11-01T06:46:10.354Z,100311.47
2023-11-01T06:48:37.453Z,100315.50
2023-11-01T06:51:05.323Z,100308.03
2023-11-01T06:53:32.319Z,100312.94
2023-11-01T06:55:59.319Z,100307.91
2023-11-01T06:58:27.216Z,100302.81
2023-11-01T07:00:54.385Z,100310.63
2023-11-01T07:03:21.594Z,100313.06
2023-11-01T07:05:49.195Z,100309.06
2023-11-01T07:08:16.396Z,100306.72
2023-11-01T07:10:43.623Z,100308.06
2023-11-01T07:13:10.631Z,100302.72
2023-11-01T07:15:39.044Z,100295.75
2023-11-01T07:18:08.713Z,100298.22
2023-11-01T07:20:36.634Z,100297.41
2023-11-01T07:23:03.721Z,100295.78
2023-11-01T07:25:30.817Z,100295.03
2023-11-01T07:27:58.246Z,100291.56
2023-11-01T07:30:25.313Z,100294.28
2023-11-01T07:32:53.896Z,100290.00
2023-11-01T07:35:21.060Z,100289.75
2023-11-01T07:37:48.089Z,100285.19
2023-11-01T07:40:15.155Z,100285.25
2023-11-01T07:42:42.174Z,100289.28
2023-11-01T07:45:13.096Z,100293.16
2023-11-01T07:47:42.301Z,100288.91
2023-11-01T07:50:13.327Z,100295.94
2023-11-01T07:52:41.417Z,100277.97
2023-11-01T07:55:08.732Z,100284.28
2023-11-01T07:57:35.923Z,100273.59
2023-11-01T08:00:06.730Z,100275.59
2023-11-01T08:02:34.061Z,100279.50
2023-11-01T08:05:01.338Z,100274.78
2023-11-01T08:07:28.656Z,100268.78
2023-11-01T08:09:55.832Z,100256.38
2023-11-01T08:12:22.867Z,100260.81
2023-11-01T08:14:51.295Z,100266.53
2023-11-01T08:17:18.816Z,100249.91
2023-11-01T08:19:45.981Z,100253.94
2023-11-01T08:22:13.765Z,100246.03
2023-11-01T08:24:41.481Z,100245.91
2023-11-01T08:27:08.688Z,100234.59
2023-11-01T08:29:36.857Z,100230.75
2023-11-01T08:32:06.635Z,100229.16
2023-11-01T08:34:33.737Z,100223.50
2023-11-01T08:37:00.701Z,100223.41
2023-11-01T08:39:27.697Z,100230.47
2023-11-01T08:41:54.952Z,100212.47
2023-11-01T08:44:22.104Z,100220.84
2023-11-01T08:46:49.059Z,100211.50
2023-11-01T08:49:16.169Z,100211.56
2023-11-01T08:51:43.205Z,100208.56
2023-11-01T08:54:13.250Z,100201.44
2023-11-01T08:56:40.441Z,100204.31
2023-11-01T08:59:07.881Z,100208.97
2023-11-01T09:01:34.961Z,100203.34
2023-11-01T09:04:02.140Z,100203.81
2023-11-01T09:06:32.312Z,100203.41
2023-11-01T09:09:00.337Z,100202.75
2023-11-01T09:11:27.959Z,100203.34
2023-11-01T09:13:55.501Z,100196.16
2023-11-01T09:16:22.703Z,100194.53
2023-11-01T09:18:49.925Z,100183.94
2023-11-01T09:21:17.082Z,100187.09
2023-11-01T09:23:44.417Z,100184.69
2023-11-01T09:26:15.405Z,100192.59
2023-11-01T09:28:43.360Z,100179.88
2023-11-01T09:31:10.860Z,100182.69
2023-11-01T09:33:38.002Z,100167.94
2023-11-01T09:36:06.392Z,100167.06
2023-11-01T09:38:33.502Z,100177.03
2023-11-01T09:41:04.413Z,100163.19
2023-11-01T09:43:34.666Z,100164.41
2023-11-01T09:46:04.943Z,100163.53
2023-11-01T09:48:32.922Z,100151.59
2023-11-01T09:51:02.736Z,100150.81
2023-11-01T09:53:30.055Z,100138.00
2023-11-01T09:55:57.421Z,100132.53
2023-11-01T09:58:26.494Z,100141.06
2023-11-01T10:00:54.097Z,100135.41
2023-11-01T10:03:23.730Z,100130.06
2023-11-01T10:05:50.988Z,100124.53
2023-11-01T10:08:18.479Z,100120.94
2023-11-01T10:10:47.147Z,100118.72
2023-11-01T10:13:14.364Z,100119.84
2023-11-01T10:15:41.593Z,100123.69
2023-11-01T10:18:08.989Z,100116.41
2023-11-01T10:20:36.095Z,100116.69
2023-11-01T10:23:03.037Z,100097.84
2023-11-01T10:25:30.266Z,100115.75
2023-11-01T10:27:57.517Z,100113.66
2023-11-01T10:30:24.534Z,100097.09
2023-11-01T10:32:57.814Z,100110.19
2023-11-01T10:35:25.736Z,100095.94
2023-11-01T10:38:02.487Z,100112.31
2023-11-01T10:40:30.796Z,100101.09
2023-11-01T10:43:00.723Z,100094.13
2023-11-01T10:45:28.026Z,100094.06
2023-11-01T10:47:55.972Z,100084.94
2023-11-01T10:50:23.728Z,100100.81
2023-11-01T10:52:51.918Z,100088.50
2023-11-01T10:55:21.406Z,100092.44
2023-11-01T10:57:51.123Z,100088.00
2023-11-01T11:00:31.177Z,100082.28
2023-11-01T11:03:12.607Z,100075.81
2023-11-01T11:05:43.916Z,100070.22
2023-11-01T11:08:12.107Z,100061.44
2023-11-01T11:10:43.545Z,100061.22
2023-11-01T11:13:11.265Z,100059.16
2023-11-01T11:16:01.274Z,100055.84
2023-11-01T11:18:50.382Z,100055.72
2023-11-01T11:21:55.348Z,100045.13
2023-11-01T11:24:40.129Z,100059.50
2023-11-01T11:27:46.587Z,100055.59
2023-11-01T11:30:13.747Z,100050.28
2023-11-01T11:32:40.995Z,100054.31
2023-11-01T11:35:23.664Z,100055.69
2023-11-01T11:37:51.241Z,100061.06
2023-11-01T11:40:18.445Z,100049.78
2023-11-01T11:42:49.950Z,100060.31
2023-11-01T11:45:30.530Z,100057.97
2023-11-01T11:47:59.215Z,100052.22
2023-11-01T11:50:30.150Z,100060.88
2023-11-01T11:52:57.728Z,100061.03
2023-11-01T11:55:43.767Z,100055.09
2023-11-01T11:58:11.291Z,100058.13
2023-11-01T12:00:46.736Z,100044.31
2023-11-01T12:03:25.412Z,100031.78
2023-11-01T12:06:02.648Z,100035.75
2023-11-01T12:08:40.064Z,100032.66
2023-11-01T12:11:10.225Z,100028.63
2023-11-01T12:13:55.409Z,100036.09
2023-11-01T12:16:31.351Z,100040.31
2023-11-01T12:19:12.403Z,100038.97
2023-11-01T12:21:44.609Z,100023.94
2023-11-01T12:24:15.920Z,100029.19
2023-11-01T12:27:11.090Z,100029.63
2023-11-01T12:29:52.523Z,100023.41
2023-11-01T12:32:25.803Z,100019.38
2023-11-01T12:34:52.864Z,100026.41
2023-11-01T12:37:22.255Z,100015.38
2023-11-01T12:40:17.094Z,100018.03
2023-11-01T12:42:51.332Z,100012.72
2023-11-01T12:45:21.242Z,100016.22
2023-11-01T12:47:54.486Z,100014.09
2023-11-01T12:50:29.969Z,100017.84
2023-11-01T12:52:57.443Z,100007.34
2023-11-01T12:55:25.163Z,100016.28
2023-11-01T12:57:56.695Z,99999.50
2023-11-01T13:00:24.990Z,100005.31
2023-11-01T13:02:53.406Z,99999.88
2023-11-01T13:05:21.944Z,100004.50
2023-11-01T13:07:49.357Z,100001.53
2023-11-01T13:10:17.429Z,100001.00
2023-11-01T13:12:47.160Z,99999.41
2023-11-01T13:15:15.748Z,99993.91
2023-11-01T13:17:42.892Z,99991.50
2023-11-01T13:20:10.458Z,100000.56
2023-11-01T13:22:37.807Z,99994.47
2023-11-01T13:25:05.703Z,99997.22
2023-11-01T13:27:32.802Z,99995.31
2023-11-01T13:29:59.871Z,99986.63
2023-11-01T13:32:27.240Z,99992.44
2023-11-01T13:34:56.649Z,99989.97
2023-11-01T13:37:23.890Z,99993.88
2023-11-01T13:39:51.205Z,99994.69
2023-11-01T13:42:18.363Z,99993.38
2023-11-01T13:44:45.739Z,99989.16
2023-11-01T13:47:13.403Z,99985.44
2023-11-01T13:49:42.682Z,99988.56
2023-11-01T13:52:12.919Z,99983.84
2023-11-01T13:54:40.611Z,99985.56
2023-11-01T13:57:08.741Z,99978.66
2023-11-01T13:59:36.743Z,99979.53
2023-11-01T14:02:04.280Z,99983.13
2023-11-01T14:04:32.890Z,99985.31
2023-11-01T14:07:00.437Z,99983.31
2023-11-01T14:09:27.598Z,99969.09
2023-11-01T14:11:55.564Z,99977.50
2023-11-01T14:14:24.263Z,99982.22
2023-11-01T14:16:52.085Z,99983.31
2023-11-01T14:19:19.456Z,99974.00
2023-11-01T14:21:46.492Z,99981.31
2023-11-01T14:24:16.339Z,99962.75
2023-11-01T14:26:46.165Z,99968.78
2023-11-01T14:29:13.379Z,99963.41
2023-11-01T14:31:40.849Z,99961.22
2023-11-01T14:34:08.429Z,99959.63
2023-11-01T14:36:35.664Z,99955.09
2023-11-01T14:39:04.018Z,99959.72
2023-11-01T14:41:31.987Z,99961.00
2023-11-01T14:44:00.977Z,99963.50
2023-11-01T14:46:28.854Z,99959.78
2023-11-01T14:48:56.698Z,99959.28
2023-11-01T14:51:23.973Z,99958.78
2023-11-01T14:53:51.213Z,99952.66
2023-11-01T14:56:18.615Z,99949.47
2023-11-01T14:58:48.362Z,99945.16
2023-11-01T15:01:16.615Z,99946.03
2023-11-01T15:03:45.643Z,99941.03
2023-11-01T15:06:13.363Z,99938.91
2023-11-01T15:08:41.155Z,99941.41
2023-11-01T15:11:10.607Z,99936.59
2023-11-01T15:13:37.739Z,99938.75
2023-11-01T15:16:07.047Z,99924.44
2023-11-01T15:18:34.212Z,99929.56
2023-11-01T15:21:26.994Z,99923.34
2023-11-01T15:23:54.161Z,99922.34
2023-11-01T15:26:21.347Z,99919.13
2023-11-01T15:28:48.591Z,99915.63
2023-11-01T15:31:15.641Z,99911.91
2023-11-01T15:33:43.068Z,99913.31
2023-11-01T15:36:10.693Z,99907.09
2023-11-01T15:38:37.989Z,99910.09
2023-11-01T15:41:06.019Z,99895.88
2023-11-01T15:43:33.195Z,99898.88
2023-11-01T15:46:00.330Z,99892.66
2023-11-01T15:48:28.756Z,99898.06
2023-11-01T15:50:55.870Z,99888.97
2023-11-01T15:53:26.602Z,99884.13
2023-11-01T15:55:54.244Z,99886.84
2023-11-01T15:58:22.508Z,99879.63
2023-11-01T16:00:50.510Z,99887.22
2023-11-01T16:03:17.945Z,99869.97
2023-11-01T16:05:47.238Z,99884.28
2023-11-01T16:08:14.296Z,99884.56
2023-11-01T16:10:41.532Z,99882.97
2023-11-01T16:13:08.585Z,99871.66
2023-11-01T16:15:35.672Z,99880.06
2023-11-01T16:18:03.100Z,99874.94
2023-11-01T16:20:30.226Z,99874.22
2023-11-01T16:22:57.544Z,99878.81
2023-11-01T16:25:25.553Z,99872.13
2023-11-01T16:27:52.739Z,99871.59
2023-11-01T16:30:20.026Z,99873.50
2023-11-01T16:32:51.069Z,99867.88
2023-11-01T16:35:21.541Z,99872.78
2023-11-01T16:37:49.040Z,99872.34
2023-11-01T16:40:20.181Z,99874.31
2023-11-01T16:42:48.534Z,99865.13
2023-11-01T16:45:15.919Z,99877.31
2023-11-01T16:47:45.898Z,99883.00
2023-11-01T16:50:13.292Z,99862.59
2023-11-01T16:52:40.535Z,99882.28
2023-11-01T16:55:08.316Z,99870.97
2023-11-01T16:57:35.791Z,99874.56
2023-11-01T17:00:03.516Z,99857.66
2023-11-01T17:02:42.170Z,99874.94
2023-11-01T17:05:13.370Z,99875.03
2023-11-01T17:07:40.862Z,99872.97
2023-11-01T17:10:09.822Z,99869.53
2023-11-01T17:12:36.792Z,99870.44
2023-11-01T17:15:05.530Z,99871.81
2023-11-01T17:17:32.667Z,99882.97
2023-11-01T17:19:59.813Z,99883.84
2023-11-01T17:22:44.799Z,99883.59
2023-11-01T17:25:46.330Z,99885.03
2023-11-01T17:28:32.354Z,99892.97
2023-11-01T17:31:09.066Z,99890.84
2023-11-01T17:33:42.887Z,99894.38
2023-11-01T17:36:28.547Z,99894.97
2023-11-01T17:38:57.676Z,99896.41
2023-11-01T17:41:55.512Z,99892.38
2023-11-01T17:44:25.741Z,99896.50
2023-11-01T17:47:01.811Z,99886.25
2023-11-01T17:49:52.074Z,99886.84
2023-11-01T17:52:38.160Z,99885.00
2023-11-01T17:55:07.964Z,99876.97
2023-11-01T17:57:40.742Z,99883.72
2023-11-01T18:00:11.722Z,99872.41
2023-11-01T18:03:14.510Z,99874.81
2023-11-01T18:05:44.779Z,99873.47
2023-11-01T18:08:17.670Z,99865.97
2023-11-01T18:10:51.524Z,99873.25
2023-11-01T18:13:31.290Z,99870.56
2023-11-01T18:16:08.854Z,99860.63
2023-11-01T18:18:56.509Z,99872.97
2023-11-01T18:21:34.283Z,99863.56
2023-11-01T18:24:14.988Z,99865.97
2023-11-01T18:26:43.070Z,99858.16
2023-11-01T18:29:11.117Z,99863.78
2023-11-01T18:31:46.587Z,99864.31
2023-11-01T18:34:16.652Z,99869.97
2023-11-01T18:36:46.835Z,99864.31
2023-11-01T18:39:24.875Z,99862.44
2023-11-01T18:41:52.625Z,99850.91
2023-11-01T18:44:35.486Z,99856.81
2023-11-01T18:47:05.765Z,99847.91
2023-11-01T18:49:47.935Z,99851.41
2023-11-01T18:52:17.976Z,99847.91
2023-11-01T18:54:50.743Z,99844.72
2023-11-01T18:57:31.970Z,99852.22
2023-11-01T18:59:59.795Z,99843.38
2023-11-01T19:02:36.150Z,99835.81
2023-11-01T19:05:09.435Z,99847.69
2023-11-01T19:07:45.117Z,99840.69
2023-11-01T19:10:12.998Z,99838.28
2023-11-01T19:12:40.279Z,99838.28
2023-11-01T19:15:29.857Z,99840.69
2023-11-01T19:17:57.030Z,99839.09
2023-11-01T19:20:24.160Z,99833.72
2023-11-01T19:22:51.542Z,99826.19
2023-11-01T19:25:18.874Z,99821.91
2023-11-01T19:27:46.151Z,99827.53
2023-11-01T19:30:14.014Z,99821.09
2023-11-01T19:32:43.562Z,99820.53
2023-11-01T19:35:11.157Z,99824.59
2023-11-01T19:37:39.649Z,99832.16
2023-11-01T19:40:09.194Z,99826.75
2023-11-01T19:42:37.225Z,99825.16
2023-11-01T19:45:05.525Z,99826.00
2023-11-01T19:47:33.251Z,99820.91
2023-11-01T19:50:00.238Z,99808.81
2023-11-01T19:52:27.168Z,99814.22
2023-11-01T19:54:54.401Z,99812.88
2023-11-01T19:57:21.389Z,99812.88
2023-11-01T19:59:49.166Z,99808.59
2023-11-01T20:02:16.614Z,99810.19
2023-11-01T20:04:44.357Z,99802.69
2023-11-01T20:07:11.664Z,99799.75
2023-11-01T20:09:38.772Z,99798.16
2023-11-01T20:12:07.463Z,99798.16
2023-11-01T20:14:35.026Z,99790.88
2023-11-01T20:17:05.887Z,99799.53
2023-11-01T20:19:32.929Z,99795.78
2023-11-01T20:22:00.343Z,99800.09
2023-11-01T20:24:27.625Z,99790.47
2023-11-01T20:26:54.724Z,99787.47
2023-11-01T20:29:24.978Z,99786.97
2023-11-01T20:31:52.775Z,99772.47
2023-11-01T20:34:19.900Z,99777.06
2023-11-01T20:36:47.063Z,99780.31
2023-11-01T20:39:14.409Z,99762.03
2023-11-01T20:41:41.806Z,99770.63
2023-11-01T20:44:08.969Z,99771.75
2023-11-01T20:46:36.013Z,99772.28
2023-11-01T20:49:03.347Z,99770.16
2023-11-01T20:51:30.299Z,99757.56
2023-11-01T20:53:59.386Z,99760.00
2023-11-01T20:56:26.443Z,99761.59
2023-11-01T20:58:54.087Z,99761.88
2023-11-01T21:01:21.224Z,99752.78
2023-11-01T21:03:48.977Z,99752.25
2023-11-01T21:06:18.414Z,99748.25
2023-11-01T21:08:51.007Z,99750.94
2023-11-01T21:11:18.102Z,99738.34
2023-11-01T21:13:45.279Z,99742.88
2023-11-01T21:16:12.414Z,99746.19
2023-11-01T21:18:39.621Z,99746.22
2023-11-01T21:21:09.915Z,99744.63
2023-11-01T21:23:38.508Z,99742.50
2023-11-01T21:26:05.771Z,99746.53
2023-11-01T21:28:32.861Z,99745.22
2023-11-01T21:31:04.358Z,99734.78
2023-11-01T21:33:31.706Z,99737.22
2023-11-01T21:35:58.867Z,99739.63
2023-11-01T21:38:26.154Z,99739.13
2023-11-01T21:40:53.342Z,99725.72
2023-11-01T21:43:25.562Z,99721.13
2023-11-01T21:45:53.916Z,99709.63
2023-11-01T21:48:25.863Z,99702.91
2023-11-01T21:51:00.941Z,99714.22
2023-11-01T21:53:35.185Z,99722.31
2023-11-01T21:56:02.333Z,99710.28
2023-11-01T21:58:32.199Z,99704.38
2023-11-01T22:01:07.313Z,99695.28
2023-11-01T22:03:43.144Z,99697.16
2023-11-01T22:06:27.799Z,99686.19
2023-11-01T22:09:07.118Z,99698.81
2023-11-01T22:11:38.104Z,99686.22
2023-11-01T22:14:11.503Z,99696.94
2023-11-01T22:16:41.071Z,99683.25
2023-11-01T22:19:35.269Z,99693.19
2023-11-01T22:22:22.363Z,99678.94
2023-11-01T22:24:49.415Z,99683.53
2023-11-01T22:27:17.802Z,99672.50
2023-11-01T22:29:53.026Z,99670.34
2023-11-01T22:32:21.052Z,99674.34
2023-11-01T22:34:49.298Z,99684.81
2023-11-01T22:37:24.064Z,99658.22
2023-11-01T22:39:52.458Z,99660.91
2023-11-01T22:42:24.314Z,99667.34
2023-11-01T22:44:51.736Z,99655.25
2023-11-01T22:47:19.158Z,99656.03
2023-11-01T22:49:46.334Z,99659.53
2023-11-01T22:52:13.412Z,99657.34
2023-11-01T22:54:42.141Z,99670.78
2023-11-01T22:57:09.502Z,99656.00
2023-11-01T22:59:38.672Z,99658.16
2023-11-01T23:02:08.327Z,99655.22
2023-11-01T23:04:36.394Z,99668.38
2023-11-01T23:07:03.921Z,99662.75
2023-11-01T23:09:31.195Z,99649.59
2023-11-01T23:11:58.261Z,99646.69
2023-11-01T23:14:25.423Z,99653.66
2023-11-01T23:16:52.533Z,99657.19
2023-11-01T23:19:20.371Z,99652.38
2023-11-01T23:21:47.480Z,99652.66
2023-11-01T23:24:15.793Z,99650.53
2023-11-01T23:26:56.986Z,99632.03
2023-11-01T23:29:38.550Z,99647.63
2023-11-01T23:32:15.343Z,99628.31
2023-11-01T23:34:53.065Z,99610.06
2023-11-01T23:37:38.048Z,99599.06
2023-11-01T23:40:11.728Z,99606.31
2023-11-01T23:42:39.052Z,99600.16
2023-11-01T23:45:53.367Z,99593.72
2023-11-01T23:48:20.965Z,99598.56
2023-11-01T23:50:48.189Z,99613.81
2023-11-01T23:53:26.125Z,99600.16
2023-11-01T23:55:54.215Z,99581.38
2023-11-01T23:58:35.632Z,99608.19
